Revere, Minnesota
Current Conditions -  °F | °C
As of 7:33 AM on Thursday 30 Oct 2014 (Local Time) from KTKC Reporting Station
Overcast Overcast  
Wind Chill: 41°   Ceiling: 8000
Heat Index: 44°   Visibility: 10mi
Dew Point: 35°   Wind: 5mph
Humidity: 72%   Direction: 170°S
Pressure: 30"   Gusts: NA
Location:  44.22°N, 95.36°W
Report Text: KTKC 301233Z AUTO 17004KT 10SM BKN080 OVC110 07/02 A3000 RMK AO2 T00660018
Loading
Personal Weather Stations






























Interactive Weather Map
Tropical Storm Tracking
New forecast layout! Learn more

10-Day Weather Forecast

Advertisements
Track Severe Weather on mobile